AEE15Z LGAV-LGSA
Flight info
| Callsign | AEE15Z |
|---|---|
| Flight time | N/A |
| Altitude | 23000 |
| Route | KEA L617 MIL Y144 RUSOS |
| Aircraft | A320/M-SDE3FGHIRWY/LB1 |
Departure
| Time | 2026-05-05 17:32 |
|---|---|
| Airport | Athens Eleftherios Venizelos International Airport (LGAV) |
Arrival
| Time | N/A |
|---|---|
| Airport | Chania International Airport (LGSA) |
| Time | Latitude | Longitude | Altitude | Speed | Heading |
|---|---|---|---|---|---|
| 2026-05-05 17:10 | 37.94136 | 23.95334 | 301 ft | 0 kts | 217° |
| 2026-05-05 17:21 | 37.94148 | 23.95346 | 301 ft | 4 kts | 217° |
| 2026-05-05 17:21 | 37.94170 | 23.95366 | 301 ft | 4 kts | 217° |
| 2026-05-05 17:22 | 37.94211 | 23.95395 | 302 ft | 4 kts | 182° |
| 2026-05-05 17:22 | 37.94232 | 23.95388 | 301 ft | 2 kts | 129° |
| 2026-05-05 17:22 | 37.94234 | 23.95386 | 302 ft | 0 kts | 127° |
| 2026-05-05 17:28 | 37.94228 | 23.95396 | 302 ft | 4 kts | 127° |
| 2026-05-05 17:28 | 37.94203 | 23.95437 | 300 ft | 7 kts | 127° |
| 2026-05-05 17:29 | 37.94164 | 23.95503 | 301 ft | 11 kts | 127° |
| 2026-05-05 17:29 | 37.94110 | 23.95593 | 299 ft | 15 kts | 127° |
| 2026-05-05 17:29 | 37.94034 | 23.95644 | 297 ft | 13 kts | 206° |
| 2026-05-05 17:29 | 37.93950 | 23.95567 | 299 ft | 16 kts | 216° |
| 2026-05-05 17:30 | 37.93850 | 23.95473 | 298 ft | 19 kts | 216° |
| 2026-05-05 17:30 | 37.93736 | 23.95363 | 298 ft | 21 kts | 216° |
| 2026-05-05 17:30 | 37.93627 | 23.95261 | 298 ft | 18 kts | 217° |
| 2026-05-05 17:30 | 37.93527 | 23.95165 | 302 ft | 18 kts | 217° |
| 2026-05-05 17:31 | 37.93438 | 23.95080 | 302 ft | 10 kts | 212° |
| 2026-05-05 17:31 | 37.93426 | 23.95138 | 299 ft | 11 kts | 64° |
| 2026-05-05 17:31 | 37.93465 | 23.95252 | 294 ft | 18 kts | 67° |
| 2026-05-05 17:31 | 37.93520 | 23.95424 | 285 ft | 19 kts | 65° |
| 2026-05-05 17:32 | 37.93644 | 23.95553 | 280 ft | 47 kts | 37° |
| 2026-05-05 17:32 | 37.94112 | 23.95995 | 285 ft | 117 kts | 37° |
| 2026-05-05 17:32 | 37.94905 | 23.96746 | 323 ft | 164 kts | 36° |
| 2026-05-05 17:32 | 37.95815 | 23.97621 | 973 ft | 164 kts | 37° |
| 2026-05-05 17:33 | 37.96722 | 23.98523 | 1673 ft | 168 kts | 38° |
| 2026-05-05 17:33 | 37.97654 | 23.99447 | 2326 ft | 172 kts | 38° |
| 2026-05-05 17:33 | 37.98629 | 24.00403 | 2829 ft | 187 kts | 36° |
| 2026-05-05 17:33 | 37.99729 | 24.01456 | 3163 ft | 211 kts | 35° |
| 2026-05-05 17:34 | 38.00975 | 24.02632 | 3604 ft | 235 kts | 35° |
| 2026-05-05 17:34 | 38.02318 | 24.03905 | 4396 ft | 245 kts | 35° |
| 2026-05-05 17:34 | 38.03686 | 24.05228 | 5281 ft | 255 kts | 39° |
| 2026-05-05 17:34 | 38.04731 | 24.07113 | 6057 ft | 272 kts | 66° |
| 2026-05-05 17:35 | 38.04970 | 24.09528 | 6968 ft | 284 kts | 94° |
| 2026-05-05 17:35 | 38.04313 | 24.11923 | 7899 ft | 295 kts | 120° |
| 2026-05-05 17:35 | 38.02862 | 24.13794 | 8818 ft | 303 kts | 146° |
| 2026-05-05 17:35 | 38.00888 | 24.14761 | 9730 ft | 309 kts | 170° |
| 2026-05-05 17:36 | 37.98717 | 24.15068 | 10378 ft | 323 kts | 174° |
| 2026-05-05 17:36 | 37.96401 | 24.15351 | 10669 ft | 346 kts | 174° |
| 2026-05-05 17:36 | 37.93950 | 24.15646 | 11157 ft | 359 kts | 174° |
| 2026-05-05 17:36 | 37.91440 | 24.15951 | 11869 ft | 365 kts | 174° |
| 2026-05-05 17:37 | 37.88928 | 24.16260 | 12606 ft | 369 kts | 174° |
| 2026-05-05 17:37 | 37.87195 | 24.16474 | 13109 ft | 372 kts | 174° |
| 2026-05-05 17:37 | 37.83761 | 24.16902 | 14072 ft | 377 kts | 174° |
| 2026-05-05 17:37 | 37.81133 | 24.17232 | 14704 ft | 382 kts | 174° |
| 2026-05-05 17:38 | 37.78470 | 24.17567 | 15330 ft | 386 kts | 174° |
| 2026-05-05 17:38 | 37.75782 | 24.17902 | 15939 ft | 390 kts | 175° |
| 2026-05-05 17:38 | 37.73061 | 24.18235 | 16550 ft | 395 kts | 175° |
| 2026-05-05 17:38 | 37.70307 | 24.18570 | 17167 ft | 399 kts | 175° |
| 2026-05-05 17:39 | 37.67528 | 24.18907 | 17765 ft | 404 kts | 175° |
| 2026-05-05 17:39 | 37.64713 | 24.19249 | 18344 ft | 409 kts | 175° |
| 2026-05-05 17:39 | 37.61862 | 24.19596 | 18874 ft | 414 kts | 176° |
| 2026-05-05 17:39 | 37.58981 | 24.19949 | 19424 ft | 418 kts | 176° |
| 2026-05-05 17:40 | 37.56076 | 24.20310 | 19975 ft | 422 kts | 176° |
| 2026-05-05 17:40 | 37.53135 | 24.20676 | 20536 ft | 426 kts | 176° |
| 2026-05-05 17:40 | 37.50177 | 24.21041 | 21058 ft | 430 kts | 176° |
| 2026-05-05 17:40 | 37.47186 | 24.21409 | 21586 ft | 433 kts | 177° |
| 2026-05-05 17:41 | 37.44170 | 24.21776 | 22066 ft | 437 kts | 177° |
| 2026-05-05 17:41 | 37.41124 | 24.22147 | 22559 ft | 441 kts | 177° |
| 2026-05-05 17:41 | 37.38052 | 24.22520 | 22964 ft | 445 kts | 178° |
| 2026-05-05 17:41 | 37.34955 | 24.22897 | 23060 ft | 450 kts | 178° |
| 2026-05-05 17:42 | 37.31830 | 24.23278 | 23067 ft | 453 kts | 178° |
| 2026-05-05 17:42 | 37.28689 | 24.23662 | 23063 ft | 454 kts | 177° |
| 2026-05-05 17:42 | 37.25581 | 24.24042 | 23062 ft | 454 kts | 177° |
| 2026-05-05 17:42 | 37.22431 | 24.24428 | 23048 ft | 455 kts | 177° |
| 2026-05-05 17:43 | 37.19280 | 24.24814 | 23065 ft | 455 kts | 177° |
| 2026-05-05 17:43 | 37.16125 | 24.25201 | 23062 ft | 456 kts | 177° |
| 2026-05-05 17:43 | 37.12969 | 24.25588 | 23062 ft | 456 kts | 177° |
| 2026-05-05 17:43 | 37.09812 | 24.25972 | 23068 ft | 456 kts | 178° |
| 2026-05-05 17:44 | 37.06660 | 24.26356 | 23069 ft | 456 kts | 178° |
| 2026-05-05 17:44 | 37.03505 | 24.26739 | 23069 ft | 456 kts | 178° |
| 2026-05-05 17:44 | 37.00346 | 24.27124 | 23069 ft | 456 kts | 177° |
| 2026-05-05 17:44 | 36.97191 | 24.27505 | 23057 ft | 456 kts | 178° |
| 2026-05-05 17:45 | 36.94035 | 24.27883 | 23062 ft | 456 kts | 178° |
| 2026-05-05 17:45 | 36.90872 | 24.28261 | 23065 ft | 456 kts | 178° |
| 2026-05-05 17:45 | 36.87718 | 24.28637 | 23067 ft | 456 kts | 178° |
| 2026-05-05 17:45 | 36.84556 | 24.29017 | 23068 ft | 456 kts | 178° |
| 2026-05-05 17:46 | 36.81398 | 24.29398 | 23069 ft | 456 kts | 178° |
| 2026-05-05 17:46 | 36.78237 | 24.29778 | 23073 ft | 456 kts | 178° |
| 2026-05-05 17:46 | 36.75083 | 24.30158 | 23064 ft | 456 kts | 178° |
| 2026-05-05 17:46 | 36.71921 | 24.30540 | 23066 ft | 456 kts | 178° |
| 2026-05-05 17:47 | 36.68765 | 24.30921 | 23071 ft | 456 kts | 178° |
| 2026-05-05 17:47 | 36.65603 | 24.31300 | 23073 ft | 456 kts | 178° |
| 2026-05-05 17:47 | 36.62447 | 24.31679 | 23074 ft | 456 kts | 178° |
| 2026-05-05 17:47 | 36.59289 | 24.32058 | 23075 ft | 456 kts | 178° |
| 2026-05-05 17:48 | 36.56142 | 24.32448 | 23075 ft | 453 kts | 177° |
| 2026-05-05 17:48 | 36.53037 | 24.32831 | 23076 ft | 455 kts | 178° |
| 2026-05-05 17:48 | 36.49860 | 24.33212 | 22603 ft | 453 kts | 178° |
| 2026-05-05 17:48 | 36.46759 | 24.33577 | 21887 ft | 452 kts | 178° |
| 2026-05-05 17:49 | 36.43654 | 24.33941 | 21371 ft | 446 kts | 178° |
| 2026-05-05 17:49 | 36.40574 | 24.34305 | 20799 ft | 442 kts | 177° |
| 2026-05-05 17:49 | 36.37523 | 24.34666 | 20233 ft | 439 kts | 177° |
| 2026-05-05 17:49 | 36.34492 | 24.35026 | 19735 ft | 435 kts | 177° |
| 2026-05-05 17:50 | 36.31488 | 24.35384 | 19152 ft | 432 kts | 177° |
| 2026-05-05 17:50 | 36.28517 | 24.35736 | 18684 ft | 426 kts | 177° |
| 2026-05-05 17:50 | 36.25568 | 24.36085 | 18102 ft | 424 kts | 177° |
| 2026-05-05 17:50 | 36.22645 | 24.36412 | 17518 ft | 419 kts | 179° |
| 2026-05-05 17:51 | 36.19769 | 24.36268 | 16961 ft | 410 kts | 191° |
| 2026-05-05 17:51 | 36.16998 | 24.35561 | 16388 ft | 404 kts | 196° |
| 2026-05-05 17:51 | 36.15189 | 24.35046 | 16005 ft | 402 kts | 195° |
| 2026-05-05 17:51 | 36.11568 | 24.34024 | 15278 ft | 396 kts | 195° |
| 2026-05-05 17:52 | 36.09793 | 24.33525 | 14908 ft | 393 kts | 195° |
| 2026-05-05 17:52 | 36.07139 | 24.32781 | 14415 ft | 388 kts | 195° |
| 2026-05-05 17:52 | 36.04511 | 24.32046 | 13857 ft | 386 kts | 194° |
| 2026-05-05 17:52 | 36.01904 | 24.31315 | 13219 ft | 384 kts | 194° |
| 2026-05-05 17:53 | 35.99318 | 24.30591 | 12664 ft | 379 kts | 194° |
| 2026-05-05 17:53 | 35.96763 | 24.29873 | 12144 ft | 374 kts | 194° |
| 2026-05-05 17:53 | 35.94243 | 24.29163 | 11641 ft | 369 kts | 194° |
| 2026-05-05 17:53 | 35.91757 | 24.28464 | 11307 ft | 361 kts | 194° |
| 2026-05-05 17:54 | 35.89359 | 24.27795 | 11185 ft | 347 kts | 194° |
| 2026-05-05 17:54 | 35.87043 | 24.27154 | 11060 ft | 335 kts | 194° |
| 2026-05-05 17:54 | 35.84807 | 24.26536 | 10937 ft | 324 kts | 193° |
| 2026-05-05 17:54 | 35.82605 | 24.26358 | 10819 ft | 314 kts | 171° |
| 2026-05-05 17:55 | 35.80606 | 24.27260 | 10676 ft | 301 kts | 144° |
| 2026-05-05 17:55 | 35.79144 | 24.29003 | 10512 ft | 288 kts | 119° |
| 2026-05-05 17:55 | 35.78282 | 24.31186 | 10212 ft | 283 kts | 108° |
| 2026-05-05 17:55 | 35.77448 | 24.33439 | 9594 ft | 296 kts | 118° |
| 2026-05-05 17:56 | 35.76031 | 24.35287 | 9403 ft | 302 kts | 143° |
| 2026-05-05 17:56 | 35.74095 | 24.36330 | 9234 ft | 308 kts | 164° |
| 2026-05-05 17:56 | 35.72011 | 24.36960 | 8874 ft | 308 kts | 165° |
| 2026-05-05 17:56 | 35.69925 | 24.37549 | 8505 ft | 308 kts | 166° |
| 2026-05-05 17:57 | 35.67833 | 24.38121 | 8120 ft | 308 kts | 166° |
| 2026-05-05 17:57 | 35.65748 | 24.38689 | 7785 ft | 306 kts | 166° |
| 2026-05-05 17:57 | 35.63662 | 24.39262 | 7352 ft | 308 kts | 166° |
| 2026-05-05 17:57 | 35.61570 | 24.39842 | 6960 ft | 308 kts | 166° |
| 2026-05-05 17:58 | 35.59486 | 24.40467 | 6571 ft | 308 kts | 163° |
| 2026-05-05 17:58 | 35.57445 | 24.41169 | 6058 ft | 301 kts | 163° |
| 2026-05-05 17:58 | 35.55443 | 24.41710 | 5670 ft | 288 kts | 170° |
| 2026-05-05 17:58 | 35.53491 | 24.41973 | 5326 ft | 276 kts | 177° |
| 2026-05-05 17:59 | 35.51634 | 24.41992 | 5017 ft | 265 kts | 183° |
| 2026-05-05 17:59 | 35.49834 | 24.41808 | 4697 ft | 254 kts | 188° |
| 2026-05-05 17:59 | 35.48137 | 24.41432 | 4392 ft | 242 kts | 200° |
| 2026-05-05 17:59 | 35.46730 | 24.40366 | 4136 ft | 233 kts | 230° |
| 2026-05-05 18:00 | 35.45969 | 24.38679 | 3879 ft | 224 kts | 258° |
| 2026-05-05 18:00 | 35.45943 | 24.36819 | 3612 ft | 217 kts | 284° |